Time;durP1;ratioP1;P1;durP2;ratioP2;P2;SDS_P1;SDS_P2;PMS_P1;PMS_P2;Temp;Humidity;BMP_temperature;BMP_pressure;BME280_temperature;BME280_humidity;BME280_pressure;Samples;Min_cycle;Max_cycle;Signal;HPM_P1;HPM_P2
2023/03/11 00:00:47;;;;;;;;;;;;;;;11.78;70.42;97900.56;3178959;27;19931;-73
2023/03/11 00:02:19;;;;;;;;;;;;;;;11.78;70.47;97892.75;3178850;27;19996;-74
2023/03/11 00:03:51;;;;;;;;;;;;;;;11.78;70.34;97895.34;3178616;27;19928;-75
2023/03/11 00:05:23;;;;;;;;;;;;;;;11.80;70.13;97896.91;3163778;27;19927;-74
2023/03/11 00:06:54;;;;;;;;;;;;;;;11.83;70.02;97898.41;3179135;27;20593;-74
2023/03/11 00:08:27;;;;;;;;;;;;;;;11.83;69.95;97899.25;3174708;27;19984;-73
2023/03/11 00:09:59;;;;;;;;;;;;;;;11.80;70.40;97890.81;3169698;27;19935;-74
2023/03/11 00:11:31;;;;;;;;;;;;;;;11.79;70.19;97891.78;3178449;27;19927;-74
2023/03/11 00:13:03;;;;;;;;;;;;;;;11.79;70.28;97895.22;3182746;27;19938;-74
2023/03/11 00:14:34;;;;;;;;;;;;;;;11.77;70.78;97885.84;3173727;27;20348;-76
2023/03/11 00:16:06;;;;;;;;;;;;;;;11.76;70.69;97869.38;3184277;27;19934;-74
2023/03/11 00:17:36;;;;;;;;;;;;;;;11.77;70.40;97872.81;3184030;27;19923;-75
2023/03/11 00:19:09;;;;;;;;;;;;;;;11.78;70.38;97867.50;3183734;27;19933;-73
2023/03/11 00:20:41;;;;;;;;;;;;;;;11.82;70.04;97861.06;3184110;27;20336;-73
2023/03/11 00:22:13;;;;;;;;;;;;;;;11.85;69.77;97854.81;3181375;27;19927;-75
2023/03/11 00:23:45;;;;;;;;;;;;;;;11.88;69.77;97857.16;3179781;27;19923;-75
2023/03/11 00:25:17;;;;;;;;;;;;;;;11.89;69.77;97866.66;3180126;27;19924;-75
2023/03/11 00:26:49;;;;;;;;;;;;;;;11.84;70.07;97863.56;3183510;27;19923;-75
2023/03/11 00:28:24;;;;;;;;;;;;;;;11.84;70.19;97848.75;3183728;27;19927;-75
2023/03/11 00:29:55;;;;;;;;;;;;;;;11.86;70.01;97853.03;3183439;27;19950;-75
2023/03/11 00:31:27;;;;;;;;;;;;;;;11.84;70.10;97847.91;3183445;27;20300;-74
2023/03/11 00:32:59;;;;;;;;;;;;;;;11.79;70.60;97834.41;3181702;27;19927;-75
2023/03/11 00:34:31;;;;;;;;;;;;;;;11.80;70.43;97817.81;3183784;27;19923;-74
2023/03/11 00:36:02;;;;;;;;;;;;;;;11.81;70.18;97815.09;3183646;27;19923;-74
2023/03/11 00:37:33;;;;;;;;;;;;;;;11.83;70.28;97814.94;3178245;27;20004;-74
2023/03/11 00:39:05;;;;;;;;;;;;;;;11.84;70.07;97808.81;3182080;27;20002;-75
2023/03/11 00:40:38;;;;;;;;;;;;;;;11.85;70.05;97807.88;3169385;27;19924;-75
2023/03/11 00:42:10;;;;;;;;;;;;;;;11.87;69.93;97805.16;3183410;27;19923;-73
2023/03/11 00:43:42;;;;;;;;;;;;;;;11.87;69.85;97808.56;3183601;27;20401;-74
2023/03/11 00:45:14;;;;;;;;;;;;;;;11.85;69.89;97797.44;3183739;27;19939;-75
2023/03/11 00:46:46;;;;;;;;;;;;;;;11.86;69.62;97788.69;3183629;27;19927;-75
2023/03/11 00:48:17;;;;;;;;;;;;;;;11.85;69.61;97789.59;3171746;27;20006;-76
2023/03/11 00:49:48;;;;;;;;;;;;;;;11.84;69.97;97785.31;3181968;27;19923;-75
2023/03/11 00:51:19;;;;;;;;;;;;;;;11.80;69.92;97784.75;3183597;27;19944;-74
2023/03/11 00:52:52;;;;;;;;;;;;;;;11.80;69.99;97787.38;3180371;27;19924;-74
2023/03/11 00:54:23;;;;;;;;;;;;;;;11.80;69.89;97787.38;3180062;27;20418;-76
2023/03/11 00:55:56;;;;;;;;;;;;;;;11.81;69.83;97782.97;3178727;27;19924;-75
2023/03/11 00:57:28;;;;;;;;;;;;;;;11.81;69.97;97786.41;3182993;27;19927;-75
2023/03/11 00:58:59;;;;;;;;;;;;;;;11.82;69.96;97792.44;3183751;27;19934;-76
2023/03/11 01:00:30;;;;;;;;;;;;;;;11.79;69.80;97779.66;3178911;27;19923;-75
2023/03/11 01:02:01;;;;;;;;;;;;;;;11.77;70.03;97781.56;3175516;27;19979;-74
2023/03/11 01:03:32;;;;;;;;;;;;;;;11.77;70.09;97784.16;3183357;27;19987;-75
2023/03/11 01:05:04;;;;;;;;;;;;;;;11.77;69.78;97771.13;3172998;27;20131;-74
2023/03/11 01:06:36;;;;;;;;;;;;;;;11.78;69.82;97775.41;3178894;27;20004;-73
2023/03/11 01:08:07;;;;;;;;;;;;;;;11.77;69.66;97766.75;3183393;27;19924;-73
2023/03/11 01:09:38;;;;;;;;;;;;;;;11.78;70.01;97760.56;3179932;27;19972;-74
2023/03/11 01:11:11;;;;;;;;;;;;;;;11.78;69.76;97757.16;3183308;27;20357;-73
2023/03/11 01:12:42;;;;;;;;;;;;;;;11.79;69.62;97758.78;3183442;27;20274;-73
2023/03/11 01:14:13;;;;;;;;;;;;;;;11.79;69.69;97746.56;3174920;27;19956;-74
2023/03/11 01:15:45;;;;;;;;;;;;;;;11.80;69.55;97737.81;3181974;27;19972;-73
2023/03/11 01:17:17;;;;;;;;;;;;;;;11.77;69.86;97727.66;3183055;27;20409;-73
2023/03/11 01:18:48;;;;;;;;;;;;;;;11.78;69.84;97741.50;3183531;27;19992;-73
2023/03/11 01:20:20;;;;;;;;;;;;;;;11.81;69.82;97741.25;3183393;27;19923;-74
2023/03/11 01:21:51;;;;;;;;;;;;;;;11.81;69.92;97746.47;3172472;27;19923;-75
2023/03/11 01:23:23;;;;;;;;;;;;;;;11.82;69.92;97745.50;3183215;27;19935;-73
2023/03/11 01:24:54;;;;;;;;;;;;;;;11.82;69.68;97745.50;3179096;27;19984;-74
2023/03/11 01:26:27;;;;;;;;;;;;;;;11.82;70.08;97751.53;3175567;27;19928;-74
2023/03/11 01:27:59;;;;;;;;;;;;;;;11.82;69.95;97745.50;3183236;27;19927;-74
2023/03/11 01:29:31;;;;;;;;;;;;;;;11.82;69.92;97717.63;3179358;27;19927;-74
2023/03/11 01:31:03;;;;;;;;;;;;;;;11.82;70.32;97720.25;3183408;27;19930;-74
2023/03/11 01:32:34;;;;;;;;;;;;;;;11.79;70.42;97735.31;3182801;27;19967;-74
2023/03/11 01:34:06;;;;;;;;;;;;;;;11.74;71.08;97742.69;3182962;27;19950;-74
2023/03/11 01:35:38;;;;;;;;;;;;;;;11.73;71.10;97733.22;3178612;27;19946;-74
2023/03/11 01:37:10;;;;;;;;;;;;;;;11.75;70.94;97732.16;3183348;27;19923;-73
2023/03/11 01:38:41;;;;;;;;;;;;;;;11.77;70.63;97748.50;3183013;27;19924;-74
2023/03/11 01:40:14;;;;;;;;;;;;;;;11.77;70.73;97750.25;3176814;28;19935;-75
2023/03/11 01:41:47;;;;;;;;;;;;;;;11.74;70.94;97745.28;3181223;28;19930;-75
2023/03/11 01:43:39;;;;;;;;;;;;;;;11.72;70.93;97755.06;3183202;28;19957;-74
2023/03/11 01:45:28;;;;;;;;;;;;;;;11.65;71.33;97751.28;3177967;27;19923;-74
2023/03/11 01:47:33;;;;;;;;;;;;;;;11.63;71.57;97737.56;3151339;28;20003;-74
2023/03/11 01:49:05;;;;;;;;;;;;;;;11.65;71.49;97740.84;3143315;28;19948;-73
2023/03/11 01:50:39;;;;;;;;;;;;;;;11.63;71.64;97738.38;3138481;28;19929;-74
2023/03/11 01:52:10;;;;;;;;;;;;;;;11.65;71.59;97738.25;3143148;28;19928;-74
2023/03/11 01:53:42;;;;;;;;;;;;;;;11.66;71.20;97726.88;3143477;28;19925;-74
2023/03/11 01:55:15;;;;;;;;;;;;;;;11.68;71.14;97717.13;3176154;27;19923;-74
2023/03/11 01:56:49;;;;;;;;;;;;;;;11.68;70.99;97723.16;3179398;28;19943;-74
2023/03/11 01:58:24;;;;;;;;;;;;;;;11.68;71.29;97735.38;3182493;27;19988;-74
2023/03/11 01:59:58;;;;;;;;;;;;;;;11.68;70.94;97727.56;3182820;28;20014;-74
2023/03/11 02:01:29;;;;;;;;;;;;;;;11.69;71.26;97729.22;3182895;27;19927;-74
2023/03/11 02:03:04;;;;;;;;;;;;;;;11.70;71.14;97728.25;3182901;28;19957;-73
2023/03/11 02:04:36;;;;;;;;;;;;;;;11.69;71.11;97724.00;3176485;27;19924;-75
2023/03/11 02:06:09;;;;;;;;;;;;;;;11.70;71.03;97704.81;3181304;28;20323;-74
2023/03/11 02:07:41;;;;;;;;;;;;;;;11.70;70.93;97691.75;3182530;28;19931;-74
2023/03/11 02:09:12;;;;;;;;;;;;;;;11.71;70.78;97690.78;3182538;28;20311;-74
2023/03/11 02:10:43;;;;;;;;;;;;;;;11.72;70.96;97695.06;3175765;27;20257;-73
2023/03/11 02:12:16;;;;;;;;;;;;;;;11.73;71.00;97699.31;3178115;28;19924;-73
2023/03/11 02:13:49;;;;;;;;;;;;;;;11.74;70.81;97699.22;3178114;28;19932;-73
2023/03/11 02:15:20;;;;;;;;;;;;;;;11.75;70.67;97692.22;3176696;28;20054;-71
2023/03/11 02:16:51;;;;;;;;;;;;;;;11.73;70.86;97704.53;3183121;28;19930;-73
2023/03/11 02:18:22;;;;;;;;;;;;;;;11.67;71.62;97700.66;3182641;27;19928;-73
2023/03/11 02:20:05;;;;;;;;;;;;;;;11.64;71.29;97711.34;3177920;28;20268;-73
2023/03/11 02:21:37;;;;;;;;;;;;;;;11.61;71.92;97728.06;3182421;27;20323;-73
2023/03/11 02:23:09;;;;;;;;;;;;;;;11.58;71.77;97728.31;3182813;28;19927;-73
2023/03/11 02:24:44;;;;;;;;;;;;;;;11.59;71.68;97758.66;3182504;28;20341;-74
2023/03/11 02:26:16;;;;;;;;;;;;;;;11.53;72.44;97781.78;3173129;28;19946;-74
2023/03/11 02:27:51;;;;;;;;;;;;;;;11.43;73.31;97780.88;3182527;28;20331;-74
2023/03/11 02:29:24;;;;;;;;;;;;;;;11.33;73.73;97792.06;3182272;28;20078;-75
2023/03/11 02:30:55;;;;;;;;;;;;;;;11.26;74.69;97795.25;3182627;28;19923;-75
2023/03/11 02:32:26;;;;;;;;;;;;;;;11.19;74.90;97789.72;3182721;28;19992;-74
2023/03/11 02:34:00;;;;;;;;;;;;;;;11.12;75.35;97789.38;3178487;28;19928;-74
2023/03/11 02:35:31;;;;;;;;;;;;;;;11.07;75.55;97790.69;3182921;28;20352;-74
2023/03/11 02:37:04;;;;;;;;;;;;;;;11.02;75.88;97793.66;3169793;28;19942;-74
2023/03/11 02:38:36;;;;;;;;;;;;;;;10.95;76.29;97804.69;3182295;28;19981;-74
2023/03/11 02:40:36;;;;;;;;;;;;;;;10.91;76.60;97804.06;3182742;28;19972;-74
2023/03/11 02:42:11;;;;;;;;;;;;;;;10.86;76.73;97791.44;3159199;28;19927;-73
2023/03/11 02:43:45;;;;;;;;;;;;;;;10.83;76.91;97789.06;3182954;28;20007;-74
2023/03/11 02:45:17;;;;;;;;;;;;;;;10.81;76.84;97780.53;3183561;27;19927;-73
2023/03/11 02:46:49;;;;;;;;;;;;;;;10.81;77.11;97790.13;3185376;27;19934;-75
2023/03/11 02:48:20;;;;;;;;;;;;;;;10.82;76.81;97781.38;3172324;27;19989;-75
2023/03/11 02:49:52;;;;;;;;;;;;;;;10.85;76.26;97781.94;3183336;27;19967;-74
2023/03/11 02:51:24;;;;;;;;;;;;;;;10.88;76.45;97791.28;3184772;27;20399;-75
2023/03/11 02:52:54;;;;;;;;;;;;;;;10.89;76.09;97792.97;3180965;27;19977;-75
2023/03/11 02:54:26;;;;;;;;;;;;;;;10.87;76.24;97784.44;3181078;27;20014;-75
2023/03/11 02:55:58;;;;;;;;;;;;;;;10.90;76.26;97779.00;3178932;27;20315;-75
2023/03/11 02:57:29;;;;;;;;;;;;;;;10.89;75.90;97772.16;3179286;27;19949;-74
2023/03/11 02:59:02;;;;;;;;;;;;;;;10.90;75.87;97758.16;3184933;27;19923;-76
2023/03/11 03:00:33;;;;;;;;;;;;;;;10.95;75.71;97750.81;3184923;27;19927;-76
2023/03/11 03:02:05;;;;;;;;;;;;;;;10.97;75.61;97743.69;3184634;27;19975;-77
2023/03/11 03:03:37;;;;;;;;;;;;;;;11.00;75.27;97725.22;3180189;27;19936;-77
2023/03/11 03:05:09;;;;;;;;;;;;;;;11.00;75.24;97722.63;3173762;27;19943;-76
2023/03/11 03:06:40;;;;;;;;;;;;;;;11.00;74.84;97713.97;3184993;27;19938;-76
2023/03/11 03:08:12;;;;;;;;;;;;;;;10.98;75.00;97716.72;3184616;27;19924;-76
2023/03/11 03:09:43;;;;;;;;;;;;;;;10.94;74.95;97702.28;3184338;27;19927;-76
2023/03/11 03:11:15;;;;;;;;;;;;;;;10.90;74.65;97688.69;3178442;27;19924;-76
2023/03/11 03:12:46;;;;;;;;;;;;;;;10.89;74.75;97678.41;3184843;27;20010;-75
2023/03/11 03:14:19;;;;;;;;;;;;;;;10.87;74.40;97680.28;3175491;27;19928;-75
2023/03/11 03:15:50;;;;;;;;;;;;;;;10.86;74.57;97689.06;3183995;27;19923;-76
2023/03/11 03:17:22;;;;;;;;;;;;;;;10.87;74.32;97680.28;3182774;27;19923;-75
2023/03/11 03:18:53;;;;;;;;;;;;;;;10.87;74.41;97669.88;3182189;27;19927;-75
2023/03/11 03:20:25;;;;;;;;;;;;;;;10.86;74.34;97670.84;3184522;27;19923;-76
2023/03/11 03:21:57;;;;;;;;;;;;;;;10.85;74.21;97669.16;3182099;27;20424;-75
2023/03/11 03:23:28;;;;;;;;;;;;;;;10.82;74.17;97669.41;3184304;27;19931;-75
2023/03/11 03:24:59;;;;;;;;;;;;;;;10.79;74.20;97667.88;3184644;27;19927;-76
2023/03/11 03:26:30;;;;;;;;;;;;;;;10.79;74.46;97677.47;3182568;27;20364;-75
2023/03/11 03:28:02;;;;;;;;;;;;;;;10.76;74.42;97675.09;3184346;27;19931;-74
2023/03/11 03:29:35;;;;;;;;;;;;;;;10.74;74.49;97674.41;3184684;27;19981;-75
2023/03/11 03:31:07;;;;;;;;;;;;;;;10.72;74.33;97671.09;3184658;27;19923;-76
2023/03/11 03:32:38;;;;;;;;;;;;;;;10.69;74.46;97678.19;3179464;27;19936;-76
2023/03/11 03:34:09;;;;;;;;;;;;;;;10.67;74.44;97682.69;3184251;27;19923;-76
2023/03/11 03:35:41;;;;;;;;;;;;;;;10.65;74.67;97673.38;3183843;27;20388;-76
2023/03/11 03:37:13;;;;;;;;;;;;;;;10.62;74.36;97673.63;3183959;27;20585;-76
2023/03/11 03:38:44;;;;;;;;;;;;;;;10.62;74.47;97684.03;3159315;28;19935;-76
2023/03/11 03:40:15;;;;;;;;;;;;;;;10.61;74.69;97685.78;3183241;27;19980;-75
2023/03/11 03:41:46;;;;;;;;;;;;;;;10.61;74.49;97687.56;3175806;27;19949;-76
2023/03/11 03:43:18;;;;;;;;;;;;;;;10.61;74.79;97679.75;3181627;27;19927;-75
2023/03/11 03:44:51;;;;;;;;;;;;;;;10.61;74.71;97680.56;3184004;27;19949;-75
2023/03/11 03:46:23;;;;;;;;;;;;;;;10.59;74.70;97679.91;3184324;27;20252;-75
2023/03/11 03:47:54;;;;;;;;;;;;;;;10.61;74.62;97685.78;3179472;27;20003;-76
2023/03/11 03:49:25;;;;;;;;;;;;;;;10.61;74.86;97679.75;3178651;27;20014;-75
2023/03/11 03:51:02;;;;;;;;;;;;;;;10.59;74.79;97685.09;3177956;27;19945;-76
2023/03/11 03:52:34;;;;;;;;;;;;;;;10.60;74.91;97694.56;3184254;27;19928;-75
2023/03/11 03:54:06;;;;;;;;;;;;;;;10.59;74.75;97692.06;3183971;27;20285;-76
2023/03/11 03:55:37;;;;;;;;;;;;;;;10.59;74.98;97697.25;3184131;27;19931;-76
2023/03/11 03:57:09;;;;;;;;;;;;;;;10.59;75.14;97700.72;3177457;27;19935;-76
2023/03/11 03:58:41;;;;;;;;;;;;;;;10.60;75.54;97706.75;3184150;27;19954;-76
2023/03/11 04:00:14;;;;;;;;;;;;;;;10.61;75.55;97705.78;3184021;27;20323;-75
2023/03/11 04:01:45;;;;;;;;;;;;;;;10.62;75.27;97713.50;3178879;27;20579;-76
2023/03/11 04:03:16;;;;;;;;;;;;;;;10.64;75.44;97731.56;3183689;27;20006;-76
2023/03/11 04:04:48;;;;;;;;;;;;;;;10.64;75.54;97729.78;3171515;27;19935;-75
2023/03/11 04:06:20;;;;;;;;;;;;;;;10.65;75.53;97738.44;3157973;28;20342;-74
2023/03/11 04:07:52;;;;;;;;;;;;;;;10.65;75.41;97738.44;3183233;27;19927;-75
2023/03/11 04:09:24;;;;;;;;;;;;;;;10.65;75.52;97756.69;3184016;27;19939;-74
2023/03/11 04:10:57;;;;;;;;;;;;;;;10.62;75.36;97760.34;3184111;27;19923;-74
2023/03/11 04:12:29;;;;;;;;;;;;;;;10.61;75.52;97765.66;3182508;27;20341;-75
2023/03/11 04:14:01;;;;;;;;;;;;;;;10.59;75.36;97762.31;3177258;27;19924;-74
2023/03/11 04:15:34;;;;;;;;;;;;;;;10.56;75.27;97768.63;3180623;27;19931;-75
2023/03/11 04:17:05;;;;;;;;;;;;;;;10.55;75.37;97766.94;3179502;27;19946;-75
2023/03/11 04:18:37;;;;;;;;;;;;;;;10.55;75.65;97768.72;3178649;27;19979;-74
2023/03/11 04:20:09;;;;;;;;;;;;;;;10.55;75.44;97771.34;3183636;27;20444;-72
2023/03/11 04:21:41;;;;;;;;;;;;;;;10.54;75.55;97777.50;3183845;27;19930;-74
2023/03/11 04:23:12;;;;;;;;;;;;;;;10.52;75.71;97785.41;3183835;27;19923;-75
2023/03/11 04:24:44;;;;;;;;;;;;;;;10.52;75.79;97789.78;3183587;27;20002;-75
2023/03/11 04:26:16;;;;;;;;;;;;;;;10.50;75.62;97784.72;3183785;27;19979;-75
2023/03/11 04:27:48;;;;;;;;;;;;;;;10.50;75.68;97792.53;3174085;27;19931;-75
2023/03/11 04:29:20;;;;;;;;;;;;;;;10.48;75.82;97795.22;3183206;27;19927;-74
2023/03/11 04:30:53;;;;;;;;;;;;;;;10.48;75.86;97797.00;3178942;27;19924;-74
2023/03/11 04:32:24;;;;;;;;;;;;;;;10.47;75.72;97805.78;3183862;27;19999;-75
2023/03/11 04:33:56;;;;;;;;;;;;;;;10.46;75.91;97810.13;3183143;27;20289;-74
2023/03/11 04:35:28;;;;;;;;;;;;;;;10.46;76.15;97814.50;3183724;27;19988;-74
2023/03/11 04:36:59;;;;;;;;;;;;;;;10.46;75.93;97820.53;3183437;27;19927;-74
2023/03/11 04:38:31;;;;;;;;;;;;;;;10.46;76.24;97823.13;3183236;27;19988;-73
2023/03/11 04:40:04;;;;;;;;;;;;;;;10.46;75.93;97815.31;3183897;27;20037;-75
2023/03/11 04:41:35;;;;;;;;;;;;;;;10.46;75.91;97811.91;3182000;27;19923;-75
2023/03/11 04:43:07;;;;;;;;;;;;;;;10.47;76.14;97818.78;3181011;27;19985;-74
2023/03/11 04:44:38;;;;;;;;;;;;;;;10.46;76.19;97815.31;3183073;27;20331;-75
2023/03/11 04:46:11;;;;;;;;;;;;;;;10.46;75.96;97817.09;3178297;27;19928;-75
2023/03/11 04:47:43;;;;;;;;;;;;;;;10.43;75.85;97807.75;3183177;27;19984;-73
2023/03/11 04:49:14;;;;;;;;;;;;;;;10.46;75.85;97804.91;3183637;27;19927;-75
2023/03/11 04:50:46;;;;;;;;;;;;;;;10.43;76.14;97805.16;3183603;27;19927;-75
2023/03/11 04:52:17;;;;;;;;;;;;;;;10.47;76.11;97817.00;3183047;27;19984;-74
2023/03/11 04:53:48;;;;;;;;;;;;;;;10.48;75.97;97817.81;3182852;27;19923;-72
2023/03/11 04:55:20;;;;;;;;;;;;;;;10.49;75.87;97819.47;3183568;27;20628;-74
2023/03/11 04:56:51;;;;;;;;;;;;;;;10.51;76.07;97814.16;3181733;27;19923;-73
2023/03/11 04:58:23;;;;;;;;;;;;;;;10.52;76.00;97818.41;3170741;28;20461;-74
2023/03/11 04:59:53;;;;;;;;;;;;;;;10.53;76.25;97810.50;3170659;28;19924;-75
2023/03/11 05:01:26;;;;;;;;;;;;;;;10.54;76.26;97809.56;3182342;27;19923;-74
2023/03/11 05:02:58;;;;;;;;;;;;;;;10.55;76.17;97811.19;3183466;27;19928;-74
2023/03/11 05:04:29;;;;;;;;;;;;;;;10.56;76.19;97812.88;3175716;27;20420;-75
2023/03/11 05:06:00;;;;;;;;;;;;;;;10.57;76.43;97813.69;3176640;27;20319;-74
2023/03/11 05:07:32;;;;;;;;;;;;;;;10.59;76.42;97812.63;3178924;27;19928;-75
2023/03/11 05:09:03;;;;;;;;;;;;;;;10.60;76.13;97814.28;3170864;28;19943;-72
2023/03/11 05:10:35;;;;;;;;;;;;;;;10.62;76.38;97820.19;3173341;27;20069;-74
2023/03/11 05:12:08;;;;;;;;;;;;;;;10.63;76.47;97814.03;3180185;27;19923;-71
2023/03/11 05:13:40;;;;;;;;;;;;;;;10.67;76.23;97822.44;3172128;27;19932;-72
2023/03/11 05:15:10;;;;;;;;;;;;;;;10.70;76.13;97825.63;3173738;27;19924;-74
2023/03/11 05:16:43;;;;;;;;;;;;;;;10.72;75.94;97819.50;3170874;28;20018;-74
2023/03/11 05:18:15;;;;;;;;;;;;;;;10.75;76.09;97819.25;3183378;27;19931;-73
2023/03/11 05:19:47;;;;;;;;;;;;;;;10.77;75.97;97818.19;3183211;27;19924;-75
2023/03/11 05:21:19;;;;;;;;;;;;;;;10.80;75.62;97810.13;3182984;27;20376;-75
2023/03/11 05:22:50;;;;;;;;;;;;;;;10.83;75.58;97815.09;3181265;27;20324;-73
2023/03/11 05:24:21;;;;;;;;;;;;;;;10.83;75.58;97814.28;3170536;27;20360;-71
2023/03/11 05:25:52;;;;;;;;;;;;;;;10.83;75.44;97812.50;3183036;27;19927;-71
2023/03/11 05:27:24;;;;;;;;;;;;;;;10.83;75.40;97815.09;3179368;27;19965;-71
2023/03/11 05:28:56;;;;;;;;;;;;;;;10.83;75.58;97816.88;3173959;28;19923;-67
2023/03/11 05:30:27;;;;;;;;;;;;;;;10.84;75.26;97810.72;3174708;27;19923;-69
2023/03/11 05:31:59;;;;;;;;;;;;;;;10.84;75.46;97805.50;3182443;27;19927;-68
2023/03/11 05:33:34;;;;;;;;;;;;;;;10.87;75.24;97811.31;3182957;27;19986;-68
2023/03/11 05:35:06;;;;;;;;;;;;;;;10.89;74.98;97806.81;3182385;27;20118;-68
2023/03/11 05:36:37;;;;;;;;;;;;;;;10.92;75.14;97821.38;3182827;27;19924;-71
2023/03/11 05:38:09;;;;;;;;;;;;;;;10.96;74.83;97820.19;3182999;27;19924;-70
2023/03/11 05:39:40;;;;;;;;;;;;;;;11.01;74.84;97804.22;3183170;27;20500;-69
2023/03/11 05:41:12;;;;;;;;;;;;;;;11.04;74.88;97809.16;3182590;28;19923;-71
2023/03/11 05:42:43;;;;;;;;;;;;;;;11.09;74.61;97815.69;3175063;27;19927;-71
2023/03/11 05:44:15;;;;;;;;;;;;;;;11.14;74.70;97815.28;3182196;28;19923;-70
2023/03/11 05:45:47;;;;;;;;;;;;;;;11.18;74.36;97802.84;3170473;28;19992;-71
2023/03/11 05:47:19;;;;;;;;;;;;;;;11.23;74.42;97811.13;3172550;28;19935;-70
2023/03/11 05:48:51;;;;;;;;;;;;;;;11.29;74.10;97808.03;3182176;28;19927;-67
2023/03/11 05:50:23;;;;;;;;;;;;;;;11.34;73.94;97803.28;3183221;28;19924;-69
2023/03/11 05:51:54;;;;;;;;;;;;;;;11.37;74.00;97798.66;3182888;28;19930;-70
2023/03/11 05:53:26;;;;;;;;;;;;;;;11.41;73.62;97809.66;3175751;28;19923;-68
2023/03/11 05:54:58;;;;;;;;;;;;;;;11.44;73.60;97805.97;3183070;27;20307;-68
2023/03/11 05:56:29;;;;;;;;;;;;;;;11.47;73.51;97803.13;3183328;27;19930;-73
2023/03/11 05:58:01;;;;;;;;;;;;;;;11.50;73.45;97806.31;3176966;27;19928;-73
2023/03/11 05:59:34;;;;;;;;;;;;;;;11.54;73.16;97807.75;3181347;28;19927;-75
2023/03/11 06:01:08;;;;;;;;;;;;;;;11.59;73.40;97804.75;3181361;28;20469;-74
2023/03/11 06:02:41;;;;;;;;;;;;;;;11.63;73.13;97803.56;3183105;28;19977;-72
2023/03/11 06:04:13;;;;;;;;;;;;;;;11.68;72.91;97795.34;3180263;28;19927;-70
2023/03/11 06:05:45;;;;;;;;;;;;;;;11.73;72.83;97793.19;3176390;28;19930;-78
2023/03/11 06:07:15;;;;;;;;;;;;;;;11.78;72.65;97798.88;3182789;28;19923;-76
2023/03/11 06:08:49;;;;;;;;;;;;;;;11.83;72.77;97792.31;3178256;28;19934;-74
2023/03/11 06:10:20;;;;;;;;;;;;;;;11.90;72.43;97784.84;3183107;27;19988;-74
2023/03/11 06:11:52;;;;;;;;;;;;;;;11.97;72.43;97785.97;3182375;28;19924;-71
2023/03/11 06:13:24;;;;;;;;;;;;;;;12.03;72.18;97780.25;3179084;28;19939;-72
2023/03/11 06:14:55;;;;;;;;;;;;;;;12.12;72.13;97778.66;3174415;27;19923;-72
2023/03/11 06:16:27;;;;;;;;;;;;;;;12.19;71.98;97773.78;3182909;28;19923;-74
2023/03/11 06:18:00;;;;;;;;;;;;;;;12.27;71.50;97776.53;3182243;27;21183;-73
2023/03/11 06:19:32;;;;;;;;;;;;;;;12.35;71.41;97768.06;3182746;27;19939;-74
2023/03/11 06:21:04;;;;;;;;;;;;;;;12.43;71.42;97765.66;3184976;27;20010;-77
2023/03/11 06:22:35;;;;;;;;;;;;;;;12.51;71.22;97764.03;3185649;27;20287;-70
2023/03/11 06:24:07;;;;;;;;;;;;;;;12.61;70.63;97768.47;3185239;27;19996;-73
2023/03/11 06:25:39;;;;;;;;;;;;;;;12.68;70.75;97769.59;3184891;27;19928;-72
2023/03/11 06:27:10;;;;;;;;;;;;;;;12.74;70.47;97762.03;3185402;27;19923;-73
2023/03/11 06:28:41;;;;;;;;;;;;;;;12.80;70.16;97765.91;3176433;27;19924;-71
2023/03/11 06:30:13;;;;;;;;;;;;;;;12.85;69.95;97766.34;3181966;27;19934;-71
2023/03/11 06:31:44;;;;;;;;;;;;;;;12.92;69.64;97767.44;3184943;27;19928;-70
2023/03/11 06:33:17;;;;;;;;;;;;;;;12.96;69.72;97768.84;3177656;27;20322;-73
2023/03/11 06:34:52;;;;;;;;;;;;;;;13.02;69.35;97771.91;3179676;27;19924;-72
2023/03/11 06:36:24;;;;;;;;;;;;;;;13.04;69.29;97768.16;3178346;27;19928;-70
2023/03/11 06:37:56;;;;;;;;;;;;;;;13.09;69.08;97768.59;3175051;27;20323;-71
2023/03/11 06:39:27;;;;;;;;;;;;;;;13.13;69.04;97767.38;3177869;27;19924;-70
2023/03/11 06:41:00;;;;;;;;;;;;;;;13.17;68.77;97781.81;3185500;27;19953;-71
2023/03/11 06:42:31;;;;;;;;;;;;;;;13.21;68.59;97777.16;3184830;27;20359;-76
2023/03/11 06:44:06;;;;;;;;;;;;;;;13.24;68.80;97765.59;3176484;27;20375;-77
2023/03/11 06:45:37;;;;;;;;;;;;;;;13.26;68.54;97767.16;3184258;27;19924;-77
2023/03/11 06:47:09;;;;;;;;;;;;;;;13.28;68.65;97778.31;3184360;27;19927;-73
2023/03/11 06:48:42;;;;;;;;;;;;;;;13.31;68.33;97779.78;3183923;27;19976;-75
2023/03/11 06:50:13;;;;;;;;;;;;;;;13.32;68.48;97784.91;3184959;27;20405;-75
2023/03/11 06:51:45;;;;;;;;;;;;;;;13.36;68.22;97780.22;3185002;27;19923;-74
2023/03/11 06:53:16;;;;;;;;;;;;;;;13.35;68.12;97776.78;3184880;27;20315;-75
2023/03/11 06:54:48;;;;;;;;;;;;;;;13.37;68.21;97767.03;3185020;27;19934;-76
2023/03/11 06:56:20;;;;;;;;;;;;;;;13.39;68.12;97772.09;3184914;27;19924;-77
2023/03/11 06:57:52;;;;;;;;;;;;;;;13.40;68.14;97772.00;3183745;27;19923;-74
2023/03/11 06:59:23;;;;;;;;;;;;;;;13.42;68.17;97772.66;3174371;27;19996;-75
2023/03/11 07:00:54;;;;;;;;;;;;;;;13.43;67.67;97766.47;3178730;27;19980;-73
2023/03/11 07:02:25;;;;;;;;;;;;;;;13.47;67.75;97771.44;3184599;27;20331;-72
2023/03/11 07:03:58;;;;;;;;;;;;;;;13.49;67.65;97767.72;3183974;27;19923;-74
2023/03/11 07:05:30;;;;;;;;;;;;;;;13.49;67.08;97759.03;3174658;27;19975;-71
2023/03/11 07:07:01;;;;;;;;;;;;;;;13.54;66.99;97762.88;3184858;27;20335;-73
2023/03/11 07:08:32;;;;;;;;;;;;;;;13.59;66.48;97763.31;3180900;27;20344;-72
2023/03/11 07:10:04;;;;;;;;;;;;;;;13.65;66.53;97767.16;3164025;27;19930;-74
2023/03/11 07:11:36;;;;;;;;;;;;;;;13.69;66.24;97773.75;3166832;27;19928;-71
2023/03/11 07:13:08;;;;;;;;;;;;;;;13.73;65.82;97762.06;3165896;28;19924;-73
2023/03/11 07:14:39;;;;;;;;;;;;;;;13.77;65.42;97768.66;3163491;28;20084;-78
2023/03/11 07:16:12;;;;;;;;;;;;;;;13.82;65.05;97766.47;3163852;27;19931;-78
2023/03/11 07:17:44;;;;;;;;;;;;;;;13.89;64.73;97761.50;3162727;28;20293;-75
2023/03/11 07:19:17;;;;;;;;;;;;;;;13.96;64.41;97759.13;3164004;28;20397;-79
2023/03/11 07:20:48;;;;;;;;;;;;;;;14.04;64.02;97767.94;3165844;27;19927;-75
2023/03/11 07:22:20;;;;;;;;;;;;;;;14.24;64.30;97757.44;3163008;28;20449;-78
2023/03/11 07:23:52;;;;;;;;;;;;;;;14.62;63.97;97759.13;3166225;27;19927;-75
2023/03/11 07:25:24;;;;;;;;;;;;;;;15.04;63.25;97756.00;3162712;28;19928;-74
2023/03/11 07:26:55;;;;;;;;;;;;;;;15.47;62.66;97760.53;3159862;27;19928;-74
2023/03/11 07:28:28;;;;;;;;;;;;;;;15.90;61.62;97747.63;3164927;27;19931;-76
2023/03/11 07:30:00;;;;;;;;;;;;;;;16.41;61.07;97753.03;3165061;27;19936;-78
2023/03/11 07:31:33;;;;;;;;;;;;;;;16.87;59.59;97748.34;3171597;27;19932;-77
2023/03/11 07:33:05;;;;;;;;;;;;;;;17.27;57.08;97747.59;3164914;28;19967;-75
2023/03/11 07:34:38;;;;;;;;;;;;;;;17.54;55.28;97746.53;3163464;28;19931;-74
2023/03/11 07:36:11;;;;;;;;;;;;;;;17.80;54.33;97750.81;3163021;27;19927;-74
2023/03/11 07:37:43;;;;;;;;;;;;;;;17.97;52.87;97749.81;3169408;27;19928;-73
2023/03/11 07:39:16;;;;;;;;;;;;;;;18.08;52.26;97757.38;3164464;27;19978;-74
2023/03/11 07:40:47;;;;;;;;;;;;;;;18.13;51.13;97762.13;3163288;28;19924;-74
2023/03/11 07:42:19;;;;;;;;;;;;;;;18.20;50.99;97752.59;3170374;27;19924;-73
2023/03/11 07:43:53;;;;;;;;;;;;;;;18.30;50.67;97750.59;3177968;27;19988;-73
2023/03/11 07:45:25;;;;;;;;;;;;;;;18.33;50.11;97747.59;3171506;28;19927;-71
2023/03/11 07:46:57;;;;;;;;;;;;;;;18.26;49.90;97757.19;3180752;27;20014;-74
2023/03/11 07:48:28;;;;;;;;;;;;;;;18.18;49.61;97746.66;3183617;27;19927;-72
2023/03/11 07:50:01;;;;;;;;;;;;;;;18.07;49.17;97755.75;3184622;27;19995;-74
2023/03/11 07:51:34;;;;;;;;;;;;;;;18.03;49.49;97757.06;3184237;27;19923;-72
2023/03/11 07:53:05;;;;;;;;;;;;;;;17.94;48.73;97761.50;3183984;27;19930;-72
2023/03/11 07:54:37;;;;;;;;;;;;;;;17.89;48.73;97760.34;3184200;27;19923;-77
2023/03/11 07:56:09;;;;;;;;;;;;;;;17.85;48.84;97754.59;3184494;27;19936;-75
2023/03/11 07:57:41;;;;;;;;;;;;;;;17.82;48.67;97764.66;3175978;27;19923;-73
2023/03/11 07:59:13;;;;;;;;;;;;;;;17.83;49.19;97753.94;3174558;27;19924;-78
2023/03/11 08:00:44;;;;;;;;;;;;;;;17.99;49.17;97750.47;3184586;27;20479;-76